createdAt,value
2022-09-26T00:00:13.955Z,13.95
2022-09-26T00:02:41.259Z,12.85
2022-09-26T00:05:11.378Z,13.35
2022-09-26T00:07:38.631Z,10.57
2022-09-26T00:10:06.122Z,15.35
2022-09-26T00:12:33.420Z,11.27
2022-09-26T00:15:00.721Z,15.52
2022-09-26T00:17:27.981Z,12.43
2022-09-26T00:19:55.227Z,13.70
2022-09-26T00:22:22.452Z,13.98
2022-09-26T00:24:49.692Z,13.38
2022-09-26T00:27:16.972Z,12.55
2022-09-26T00:29:44.178Z,10.98
2022-09-26T00:32:11.525Z,11.73
2022-09-26T00:34:38.885Z,14.13
2022-09-26T00:37:06.123Z,12.90
2022-09-26T00:39:33.429Z,12.65
2022-09-26T00:42:00.644Z,9.75
2022-09-26T00:44:33.611Z,11.73
2022-09-26T00:47:01.320Z,10.80
2022-09-26T00:49:36.845Z,12.82
2022-09-26T00:52:06.382Z,9.70
2022-09-26T00:54:35.717Z,10.73
2022-09-26T00:57:08.199Z,11.15
2022-09-26T00:59:37.616Z,11.48
2022-09-26T01:02:05.331Z,11.90
2022-09-26T01:04:34.410Z,11.13
2022-09-26T01:07:02.688Z,10.18
2022-09-26T01:09:30.376Z,9.57
2022-09-26T01:11:58.249Z,11.43
2022-09-26T01:14:25.767Z,13.27
2022-09-26T01:16:53.028Z,9.45
2022-09-26T01:19:46.338Z,10.10
2022-09-26T01:22:21.784Z,12.57
2022-09-26T01:24:53.719Z,12.43
2022-09-26T01:27:36.359Z,10.95
2022-09-26T01:30:17.650Z,10.80
2022-09-26T01:35:18.290Z,10.38
2022-09-26T01:37:54.708Z,10.15
2022-09-26T01:40:42.254Z,8.65
2022-09-26T01:43:21.881Z,11.90
2022-09-26T01:45:49.185Z,11.80
2022-09-26T01:48:19.521Z,10.38
2022-09-26T01:50:58.439Z,10.20
2022-09-26T01:53:32.213Z,8.05
2022-09-26T01:56:02.628Z,8.98
2022-09-26T01:58:34.121Z,9.40
2022-09-26T02:01:04.482Z,8.35
2022-09-26T02:03:35.747Z,9.63
2022-09-26T02:08:50.870Z,9.32
2022-09-26T02:11:18.934Z,10.27
2022-09-26T02:13:46.163Z,9.75
2022-09-26T02:16:18.432Z,10.15
2022-09-26T02:18:58.408Z,10.52
2022-09-26T02:21:25.998Z,12.05
2022-09-26T02:23:54.770Z,11.38
2022-09-26T02:26:22.059Z,11.88
2022-09-26T02:28:49.389Z,11.75
2022-09-26T02:31:22.869Z,8.93
2022-09-26T02:33:50.584Z,12.82
2022-09-26T02:36:19.106Z,13.02
2022-09-26T02:38:46.639Z,11.10
2022-09-26T02:41:13.846Z,13.13
2022-09-26T02:43:49.857Z,14.30
2022-09-26T02:46:38.485Z,19.02
2022-09-26T02:49:17.705Z,13.40
2022-09-26T02:52:17.150Z,17.67
2022-09-26T02:54:47.366Z,15.75
2022-09-26T02:57:33.268Z,17.37
2022-09-26T03:00:09.904Z,16.30
2022-09-26T03:02:40.750Z,19.02
2022-09-26T03:05:13.427Z,16.95
2022-09-26T03:07:44.473Z,17.88
2022-09-26T03:10:12.709Z,20.55
2022-09-26T03:12:40.618Z,14.65
2022-09-26T03:15:10.281Z,17.92
2022-09-26T03:17:38.771Z,17.95
2022-09-26T03:20:14.828Z,18.38
2022-09-26T03:22:42.466Z,16.30
2022-09-26T03:25:11.855Z,19.10
2022-09-26T03:27:39.922Z,17.63
2022-09-26T03:30:07.435Z,17.75
2022-09-26T03:32:34.678Z,16.55
2022-09-26T03:35:01.960Z,18.75
2022-09-26T03:37:29.308Z,16.50
2022-09-26T03:39:56.538Z,21.17
2022-09-26T03:42:24.586Z,16.65
2022-09-26T03:44:51.983Z,16.48
2022-09-26T03:47:19.310Z,15.75
2022-09-26T03:49:48.817Z,17.08
2022-09-26T03:52:16.193Z,19.33
2022-09-26T03:54:43.449Z,18.42
2022-09-26T03:57:12.989Z,18.17
2022-09-26T03:59:40.253Z,21.17
2022-09-26T04:02:07.664Z,15.30
2022-09-26T04:04:34.944Z,17.75
2022-09-26T04:07:02.495Z,19.40
2022-09-26T04:09:29.752Z,15.63
2022-09-26T04:11:57.018Z,14.43
2022-09-26T04:14:24.312Z,17.83
2022-09-26T04:16:51.602Z,16.13
2022-09-26T04:19:19.311Z,16.70
2022-09-26T04:21:46.586Z,18.50
2022-09-26T04:24:15.113Z,14.52
2022-09-26T04:26:43.307Z,18.83
2022-09-26T04:29:11.015Z,18.30
2022-09-26T04:31:38.482Z,14.57
2022-09-26T04:34:06.177Z,15.57
2022-09-26T04:36:33.787Z,16.70
2022-09-26T04:39:01.187Z,15.77
2022-09-26T04:41:29.483Z,15.77
2022-09-26T04:43:57.736Z,17.20
2022-09-26T04:46:30.455Z,19.45
2022-09-26T04:48:59.491Z,18.08
2022-09-26T04:51:27.609Z,15.68
2022-09-26T04:53:54.844Z,17.60
2022-09-26T04:56:23.497Z,14.02
2022-09-26T04:58:50.770Z,15.77
2022-09-26T05:01:19.538Z,14.40
2022-09-26T05:03:47.094Z,14.73
2022-09-26T05:06:14.933Z,15.50
2022-09-26T05:08:44.700Z,13.68
2022-09-26T05:11:12.214Z,13.02
2022-09-26T05:13:39.570Z,11.52
2022-09-26T05:16:09.011Z,11.50
2022-09-26T05:18:39.350Z,13.55
2022-09-26T05:21:07.622Z,15.97
2022-09-26T05:23:54.055Z,13.35
2022-09-26T05:26:24.095Z,12.93
2022-09-26T05:29:07.705Z,14.63
2022-09-26T05:31:37.961Z,14.02
2022-09-26T05:34:13.054Z,11.77
2022-09-26T05:36:43.176Z,14.52
2022-09-26T05:39:30.593Z,12.63
2022-09-26T05:41:59.050Z,12.90
2022-09-26T05:44:26.693Z,13.68
2022-09-26T05:46:54.062Z,14.30
2022-09-26T05:49:21.339Z,15.07
2022-09-26T05:51:48.581Z,11.52
2022-09-26T05:54:16.685Z,14.77
2022-09-26T05:56:43.892Z,10.57
2022-09-26T05:59:11.203Z,19.20
2022-09-26T06:01:38.578Z,10.77
2022-09-26T06:04:05.915Z,13.77
2022-09-26T06:06:33.826Z,12.73
2022-09-26T06:09:02.008Z,11.77
2022-09-26T06:11:30.883Z,12.43
2022-09-26T06:14:00.921Z,12.45
2022-09-26T06:16:28.804Z,12.80
2022-09-26T06:18:56.250Z,16.65
2022-09-26T06:21:23.792Z,11.73
2022-09-26T06:23:51.059Z,13.38
2022-09-26T06:26:21.171Z,11.48
2022-09-26T06:28:50.095Z,8.95
2022-09-26T06:31:18.347Z,13.07
2022-09-26T06:33:50.346Z,9.32
2022-09-26T06:36:17.599Z,13.23
2022-09-26T06:38:44.875Z,13.35
2022-09-26T06:41:16.115Z,14.05
2022-09-26T06:46:12.749Z,16.38
2022-09-26T06:48:39.966Z,18.13
2022-09-26T06:51:07.333Z,17.33
2022-09-26T06:53:37.547Z,18.17
2022-09-26T06:56:05.135Z,21.13
2022-09-26T06:58:32.623Z,18.42
2022-09-26T07:01:00.059Z,16.33
2022-09-26T07:03:27.401Z,18.17
2022-09-26T07:05:56.201Z,10.88
2022-09-26T07:08:43.307Z,13.68
2022-09-26T07:11:32.844Z,9.40
2022-09-26T07:14:00.328Z,15.73
2022-09-26T07:16:27.632Z,11.88
2022-09-26T07:18:55.395Z,9.55
2022-09-26T07:21:22.655Z,11.73
2022-09-26T07:23:49.949Z,15.68
2022-09-26T07:26:17.218Z,9.93
2022-09-26T07:28:44.799Z,8.90
2022-09-26T07:31:12.095Z,11.15
2022-09-26T07:33:40.259Z,8.75
2022-09-26T07:36:09.887Z,12.40
2022-09-26T07:38:37.497Z,15.82
2022-09-26T07:41:04.815Z,8.82
2022-09-26T07:44:04.616Z,12.07
2022-09-26T07:46:38.005Z,11.48
2022-09-26T07:49:24.175Z,14.00
2022-09-26T07:51:54.901Z,9.50
2022-09-26T07:54:22.258Z,7.47
2022-09-26T07:56:49.491Z,7.38
2022-09-26T07:59:16.786Z,10.05
2022-09-26T08:01:45.063Z,9.13
2022-09-26T08:04:13.424Z,7.97
2022-09-26T08:06:40.689Z,8.52
2022-09-26T08:09:08.171Z,9.75
2022-09-26T08:11:37.677Z,6.55
2022-09-26T08:14:04.998Z,6.00
2022-09-26T08:16:32.363Z,6.25
2022-09-26T08:19:01.781Z,7.13
2022-09-26T08:21:29.025Z,8.65
2022-09-26T08:23:56.318Z,4.95
2022-09-26T08:26:23.961Z,6.95
2022-09-26T08:28:51.521Z,3.95
2022-09-26T08:31:18.994Z,5.70
2022-09-26T08:33:46.343Z,6.55
2022-09-26T08:36:15.500Z,4.40
2022-09-26T08:38:42.967Z,6.05
2022-09-26T08:41:36.665Z,8.50
2022-09-26T08:44:04.181Z,4.65
2022-09-26T08:46:49.494Z,7.50
2022-09-26T08:49:25.673Z,7.57
2022-09-26T08:51:54.143Z,5.40
2022-09-26T08:54:26.922Z,7.72
2022-09-26T08:56:56.199Z,6.10
2022-09-26T08:59:23.388Z,6.43
2022-09-26T09:01:51.894Z,4.30
2022-09-26T09:04:26.020Z,8.65
2022-09-26T09:06:59.829Z,3.60
2022-09-26T09:09:27.096Z,6.50
2022-09-26T09:12:01.963Z,3.83
2022-09-26T09:14:29.172Z,4.65
2022-09-26T09:17:07.475Z,3.33
2022-09-26T09:19:53.459Z,6.53
2022-09-26T09:22:29.470Z,3.13
2022-09-26T09:25:01.024Z,6.80
2022-09-26T09:27:54.687Z,5.22
2022-09-26T09:30:26.899Z,6.82
2022-09-26T09:32:57.225Z,2.72
2022-09-26T09:35:35.794Z,4.60
2022-09-26T09:38:03.170Z,2.25
2022-09-26T09:40:34.187Z,2.65
2022-09-26T09:43:13.240Z,3.35
2022-09-26T09:45:51.276Z,3.30
2022-09-26T09:48:18.972Z,2.75
2022-09-26T09:51:05.825Z,3.17
2022-09-26T09:53:40.559Z,3.50
2022-09-26T09:56:21.042Z,3.08
2022-09-26T09:58:57.419Z,5.70
2022-09-26T10:01:40.877Z,3.75
2022-09-26T10:04:08.230Z,2.85
2022-09-26T10:06:45.364Z,2.40
2022-09-26T10:09:35.391Z,5.70
2022-09-26T10:12:14.444Z,1.70
2022-09-26T10:14:45.739Z,2.42
2022-09-26T10:17:14.136Z,3.92
2022-09-26T10:19:44.232Z,2.10
2022-09-26T10:22:17.308Z,2.00
2022-09-26T10:24:46.203Z,3.47
2022-09-26T10:27:35.169Z,2.72
2022-09-26T10:30:04.518Z,1.65
2022-09-26T10:32:32.143Z,3.63
2022-09-26T10:35:08.279Z,2.45
2022-09-26T10:37:38.039Z,5.60
2022-09-26T10:40:40.425Z,2.80
2022-09-26T10:43:22.914Z,4.15
2022-09-26T10:45:55.606Z,2.58
2022-09-26T10:48:26.908Z,2.50
2022-09-26T10:51:01.979Z,3.08
2022-09-26T10:53:34.294Z,2.20
2022-09-26T10:56:02.984Z,3.15
2022-09-26T10:58:30.255Z,4.25
2022-09-26T11:01:01.366Z,5.53
2022-09-26T11:03:48.904Z,5.55
2022-09-26T11:06:24.046Z,1.30
2022-09-26T11:08:54.185Z,1.77
2022-09-26T11:11:24.604Z,3.03
2022-09-26T11:14:07.468Z,2.97
2022-09-26T11:16:49.690Z,8.52
2022-09-26T11:19:44.370Z,2.88
2022-09-26T11:22:28.057Z,1.20
2022-09-26T11:24:55.277Z,4.03
2022-09-26T11:27:30.538Z,3.50
2022-09-26T11:30:02.883Z,2.55
2022-09-26T11:32:32.284Z,3.80
2022-09-26T11:35:03.645Z,1.67
2022-09-26T11:37:50.861Z,4.43
2022-09-26T11:40:18.289Z,3.33
2022-09-26T11:43:04.145Z,7.50
2022-09-26T11:45:47.319Z,4.15
2022-09-26T11:48:25.040Z,3.65
2022-09-26T11:51:04.665Z,1.90
2022-09-26T11:53:50.578Z,2.97
2022-09-26T11:56:26.768Z,2.35
2022-09-26T11:59:03.197Z,4.65
2022-09-26T12:01:38.227Z,3.63
2022-09-26T12:04:07.870Z,4.50
2022-09-26T12:06:41.737Z,4.55
2022-09-26T12:09:12.060Z,1.10
2022-09-26T12:12:06.107Z,3.33
2022-09-26T12:14:39.338Z,4.40
2022-09-26T12:17:12.698Z,2.38
2022-09-26T12:19:55.851Z,4.63
2022-09-26T12:22:28.692Z,8.55
2022-09-26T12:25:07.957Z,3.88
2022-09-26T12:27:53.529Z,3.08
2022-09-26T12:30:22.017Z,5.05
2022-09-26T12:32:49.251Z,6.82
2022-09-26T12:35:36.153Z,3.83
2022-09-26T12:38:07.183Z,4.63
2022-09-26T12:40:37.157Z,4.63
2022-09-26T12:43:14.033Z,3.30
2022-09-26T12:45:42.323Z,7.65
2022-09-26T12:48:32.467Z,8.75
2022-09-26T12:51:10.582Z,6.85
2022-09-26T12:54:01.554Z,6.13
2022-09-26T12:56:41.112Z,6.05
2022-09-26T12:59:09.132Z,4.88
2022-09-26T13:01:47.627Z,5.93
2022-09-26T13:04:17.678Z,5.05
2022-09-26T13:06:57.284Z,4.30
2022-09-26T13:09:41.300Z,6.72
2022-09-26T13:12:16.902Z,7.30
2022-09-26T13:14:52.714Z,2.65
2022-09-26T13:17:22.687Z,3.83
2022-09-26T13:19:51.694Z,7.50
2022-09-26T13:22:31.713Z,4.05
2022-09-26T13:25:20.950Z,5.05
2022-09-26T13:27:58.107Z,3.95
2022-09-26T13:30:26.809Z,5.88
2022-09-26T13:32:55.761Z,5.97
2022-09-26T13:35:24.573Z,2.72
2022-09-26T13:38:01.305Z,4.78
2022-09-26T13:40:36.133Z,4.63
2022-09-26T13:43:18.186Z,5.68
2022-09-26T13:46:00.631Z,2.97
2022-09-26T13:48:40.118Z,2.67
2022-09-26T13:51:13.890Z,6.45
2022-09-26T13:53:53.069Z,4.55
2022-09-26T13:56:36.292Z,4.53
2022-09-26T13:59:03.870Z,4.03
2022-09-26T14:01:33.200Z,6.68
2022-09-26T14:04:19.264Z,5.95
2022-09-26T14:07:03.565Z,3.92
2022-09-26T14:09:51.665Z,3.95
2022-09-26T14:12:31.455Z,3.92
2022-09-26T14:15:16.268Z,4.85
2022-09-26T14:17:43.674Z,6.05
2022-09-26T14:20:38.487Z,4.00
2022-09-26T14:23:05.739Z,7.00
2022-09-26T14:25:48.307Z,4.43
2022-09-26T14:28:32.692Z,5.93
2022-09-26T14:31:14.066Z,5.78
2022-09-26T14:33:41.574Z,7.35
2022-09-26T14:36:38.298Z,4.18
2022-09-26T14:39:06.067Z,9.20
2022-09-26T14:41:34.825Z,9.63
2022-09-26T14:44:07.146Z,6.68
2022-09-26T14:46:35.553Z,5.25
2022-09-26T14:49:05.505Z,5.80
2022-09-26T14:51:42.124Z,8.20
2022-09-26T14:54:32.001Z,7.13
2022-09-26T14:57:01.456Z,7.32
2022-09-26T14:59:40.110Z,12.05
2022-09-26T15:02:16.749Z,7.13
2022-09-26T15:04:45.789Z,5.45
2022-09-26T15:07:34.517Z,4.63
2022-09-26T15:10:04.593Z,5.70
2022-09-26T15:12:40.014Z,7.72
2022-09-26T15:15:18.335Z,6.13
2022-09-26T15:17:49.632Z,5.72
2022-09-26T15:20:19.243Z,11.07
2022-09-26T15:22:48.642Z,6.43
2022-09-26T15:25:26.242Z,8.27
2022-09-26T15:27:54.722Z,6.30
2022-09-26T15:30:24.528Z,9.45
2022-09-26T15:32:56.720Z,8.70
2022-09-26T15:35:24.438Z,9.38
2022-09-26T15:37:51.748Z,14.38
2022-09-26T15:40:23.570Z,9.57
2022-09-26T15:43:02.278Z,9.05
2022-09-26T15:45:33.702Z,10.18
2022-09-26T15:48:05.583Z,9.88
2022-09-26T15:50:36.048Z,8.25
2022-09-26T15:53:08.185Z,7.55
2022-09-26T15:55:38.632Z,8.20
2022-09-26T15:58:08.308Z,8.63
2022-09-26T16:00:37.856Z,7.95
2022-09-26T16:03:19.564Z,9.75
2022-09-26T16:05:49.206Z,8.43
2022-09-26T16:08:21.689Z,10.52
2022-09-26T16:10:59.558Z,9.38
2022-09-26T16:13:33.616Z,11.23
2022-09-26T16:16:06.587Z,7.95
2022-09-26T16:18:40.134Z,11.38
2022-09-26T16:21:16.820Z,8.98
2022-09-26T16:23:51.601Z,9.57
2022-09-26T16:26:36.986Z,11.80
2022-09-26T16:29:05.230Z,9.60
2022-09-26T16:31:45.483Z,13.88
2022-09-26T16:34:22.822Z,17.98
2022-09-26T16:36:50.848Z,12.15
2022-09-26T16:39:28.406Z,16.55
2022-09-26T16:42:02.877Z,12.25
2022-09-26T16:44:41.480Z,11.10
2022-09-26T16:47:29.589Z,11.70
2022-09-26T16:49:56.885Z,9.60
2022-09-26T16:52:28.620Z,11.60
2022-09-26T16:54:57.029Z,9.25
2022-09-26T16:57:27.114Z,16.13
2022-09-26T17:00:14.798Z,11.23
2022-09-26T17:02:42.513Z,14.20
2022-09-26T17:05:19.475Z,12.55
2022-09-26T17:07:47.846Z,11.48
2022-09-26T17:10:15.454Z,9.40
2022-09-26T17:12:42.905Z,9.20
2022-09-26T17:15:19.943Z,11.55
2022-09-26T17:17:48.205Z,8.75
2022-09-26T17:20:15.865Z,7.65
2022-09-26T17:22:43.277Z,10.20
2022-09-26T17:25:13.925Z,11.50
2022-09-26T17:27:41.545Z,9.27
2022-09-26T17:30:15.756Z,9.73
2022-09-26T17:32:46.330Z,8.95
2022-09-26T17:35:13.599Z,10.27
2022-09-26T17:37:40.885Z,10.55
2022-09-26T17:40:17.143Z,8.45
2022-09-26T17:42:44.540Z,8.98
2022-09-26T17:45:12.495Z,10.20
2022-09-26T17:47:40.591Z,12.65
2022-09-26T17:50:08.750Z,13.75
2022-09-26T17:52:36.681Z,10.15
2022-09-26T17:55:05.987Z,13.00
2022-09-26T17:57:38.206Z,14.80
2022-09-26T18:00:10.367Z,11.05
2022-09-26T18:02:42.730Z,9.40
2022-09-26T18:05:19.259Z,11.07
2022-09-26T18:07:47.466Z,7.93
2022-09-26T18:10:19.512Z,13.13
2022-09-26T18:12:48.383Z,10.45
2022-09-26T18:15:20.119Z,13.50
2022-09-26T18:17:49.689Z,12.07
2022-09-26T18:20:18.371Z,9.30
2022-09-26T18:22:47.232Z,11.60
2022-09-26T18:25:23.174Z,10.80
2022-09-26T18:27:53.437Z,20.15
2022-09-26T18:30:24.647Z,10.43
2022-09-26T18:35:24.690Z,13.05
2022-09-26T18:37:55.365Z,8.35
2022-09-26T18:40:23.532Z,14.57
2022-09-26T18:42:51.714Z,9.88
2022-09-26T18:45:26.391Z,12.50
2022-09-26T18:47:55.270Z,13.57
2022-09-26T18:50:24.517Z,12.25
2022-09-26T18:52:52.171Z,9.95
2022-09-26T18:55:41.652Z,9.85
2022-09-26T18:58:24.628Z,11.52
2022-09-26T19:00:59.906Z,10.45
2022-09-26T19:03:31.516Z,10.63
2022-09-26T19:06:04.162Z,11.93
2022-09-26T19:08:38.901Z,9.65
2022-09-26T19:11:13.134Z,10.10
2022-09-26T19:13:41.241Z,9.30
2022-09-26T19:16:08.810Z,11.25
2022-09-26T19:18:36.851Z,11.55
2022-09-26T19:21:05.258Z,10.80
2022-09-26T19:23:34.868Z,11.80
2022-09-26T19:26:02.944Z,9.52
2022-09-26T19:28:33.315Z,9.40
2022-09-26T19:31:01.341Z,10.63
2022-09-26T19:33:28.785Z,10.27
2022-09-26T19:35:56.489Z,12.15
2022-09-26T19:38:25.150Z,12.85
2022-09-26T19:40:53.817Z,8.18
2022-09-26T19:43:21.882Z,6.53
2022-09-26T19:45:51.507Z,8.80
2022-09-26T19:48:20.526Z,9.95
2022-09-26T19:50:48.399Z,12.25
2022-09-26T19:53:20.070Z,13.57
2022-09-26T19:55:50.338Z,16.50
2022-09-26T19:58:18.994Z,15.65
2022-09-26T20:00:49.740Z,14.60
2022-09-26T20:03:20.030Z,17.23
2022-09-26T20:05:47.921Z,14.07
2022-09-26T20:08:17.861Z,12.10
2022-09-26T20:10:45.829Z,12.65
2022-09-26T20:13:13.195Z,9.57
2022-09-26T20:15:40.628Z,11.05
2022-09-26T20:18:08.685Z,9.32
2022-09-26T20:20:38.451Z,7.57
2022-09-26T20:23:07.670Z,8.25
2022-09-26T20:25:36.736Z,12.18
2022-09-26T20:28:04.030Z,10.07
2022-09-26T20:30:50.151Z,9.10
2022-09-26T20:33:22.059Z,8.23
2022-09-26T20:35:54.192Z,8.35
2022-09-26T20:38:26.638Z,8.30
2022-09-26T20:41:02.773Z,9.80
2022-09-26T20:43:35.550Z,8.48
2022-09-26T20:46:07.160Z,7.57
2022-09-26T20:48:35.748Z,8.75
2022-09-26T20:51:06.007Z,8.45
2022-09-26T20:53:33.448Z,6.95
2022-09-26T20:56:00.925Z,7.80
2022-09-26T20:58:29.440Z,9.15
2022-09-26T21:00:59.653Z,8.75
2022-09-26T21:03:28.212Z,8.73
2022-09-26T21:05:55.575Z,10.30
2022-09-26T21:08:27.781Z,8.57
2022-09-26T21:10:56.283Z,11.60
2022-09-26T21:13:23.950Z,10.05
2022-09-26T21:15:51.953Z,7.53
2022-09-26T21:18:24.285Z,9.00
2022-09-26T21:20:52.499Z,7.07
2022-09-26T21:23:20.400Z,9.02
2022-09-26T21:25:48.087Z,10.82
2022-09-26T21:28:23.456Z,6.95
2022-09-26T21:30:50.861Z,6.20
2022-09-26T21:33:18.737Z,8.30
2022-09-26T21:35:46.013Z,6.28
2022-09-26T21:38:13.257Z,9.05
2022-09-26T21:40:43.161Z,7.95
2022-09-26T21:43:15.517Z,7.45
2022-09-26T21:45:43.858Z,7.80
2022-09-26T21:48:11.741Z,5.70
2022-09-26T21:50:40.509Z,6.90
2022-09-26T21:53:16.665Z,6.07
2022-09-26T21:55:45.669Z,6.63
2022-09-26T21:58:16.679Z,5.70
2022-09-26T22:00:43.953Z,5.72
2022-09-26T22:03:11.220Z,6.28
2022-09-26T22:05:38.538Z,10.02
2022-09-26T22:08:05.792Z,6.32
2022-09-26T22:10:33.140Z,7.78
2022-09-26T22:13:00.471Z,7.78
2022-09-26T22:15:27.765Z,4.95
2022-09-26T22:17:55.252Z,7.10
2022-09-26T22:20:23.017Z,5.10
2022-09-26T22:22:50.649Z,6.10
2022-09-26T22:25:18.039Z,5.45
2022-09-26T22:27:45.378Z,6.45
2022-09-26T22:30:13.089Z,6.40
2022-09-26T22:32:40.413Z,5.15
2022-09-26T22:35:07.872Z,6.00
2022-09-26T22:37:35.149Z,5.07
2022-09-26T22:40:02.728Z,5.35
2022-09-26T22:42:30.009Z,5.95
2022-09-26T22:44:57.290Z,7.30
2022-09-26T22:47:24.593Z,5.28
2022-09-26T22:49:52.082Z,7.93
2022-09-26T22:52:19.345Z,7.00
2022-09-26T22:54:46.639Z,6.03
2022-09-26T22:57:13.942Z,7.75
2022-09-26T22:59:41.244Z,9.52
2022-09-26T23:02:08.602Z,8.57
2022-09-26T23:04:50.472Z,6.03
2022-09-26T23:07:19.085Z,8.85
2022-09-26T23:09:46.642Z,5.97
2022-09-26T23:12:14.454Z,6.13
2022-09-26T23:14:41.836Z,5.47
2022-09-26T23:17:10.411Z,6.47
2022-09-26T23:19:38.236Z,6.18
2022-09-26T23:22:05.558Z,7.35
2022-09-26T23:24:32.853Z,7.22
2022-09-26T23:27:00.896Z,6.38
2022-09-26T23:29:28.240Z,6.45
2022-09-26T23:31:55.546Z,6.30
2022-09-26T23:34:22.853Z,4.93
2022-09-26T23:36:50.163Z,5.50
2022-09-26T23:39:17.585Z,6.80
2022-09-26T23:41:44.926Z,5.50
2022-09-26T23:44:12.243Z,4.47
2022-09-26T23:46:39.783Z,6.22
2022-09-26T23:49:07.122Z,6.43
2022-09-26T23:51:34.445Z,7.43
2022-09-26T23:54:02.756Z,7.05
2022-09-26T23:56:30.101Z,10.23
2022-09-26T23:58:57.723Z,6.03
